Time;durP1;ratioP1;P1;durP2;ratioP2;P2;SDS_P1;SDS_P2;PMS_P1;PMS_P2;Temp;Humidity;BMP_temperature;BMP_pressure;BME280_temperature;BME280_humidity;BME280_pressure;Samples;Min_cycle;Max_cycle;Signal;HPM_P1;HPM_P2
2023/08/26 00:00:29;;;;;;;6.10;3.92;;;;;;;25.40;51.62;99233.16;10330291;28;20533;-69
2023/08/26 00:05:31;;;;;;;7.22;4.45;;;;;;;25.61;51.39;99200.78;10335076;28;20323;-68
2023/08/26 00:10:33;;;;;;;8.88;4.70;;;;;;;25.22;51.46;99244.94;10331418;28;20605;-67
2023/08/26 00:15:34;;;;;;;5.97;4.18;;;;;;;26.20;49.65;99200.31;10333882;28;20747;-67
2023/08/26 00:20:37;;;;;;;7.85;4.35;;;;;;;25.64;51.08;99189.22;10335803;28;20217;-68
2023/08/26 00:25:38;;;;;;;7.60;5.03;;;;;;;26.30;49.83;99171.88;10339225;28;20241;-69
2023/08/26 00:30:40;;;;;;;4.57;3.97;;;;;;;25.51;51.19;99191.91;10335145;28;20937;-67
2023/08/26 00:35:43;;;;;;;5.47;4.60;;;;;;;26.24;49.96;99184.09;10331053;28;20221;-67
2023/08/26 00:40:45;;;;;;;5.10;4.40;;;;;;;25.53;51.08;99200.66;10335863;28;20595;-68
2023/08/26 00:45:49;;;;;;;6.65;4.57;;;;;;;25.24;51.75;99218.91;10336841;28;20229;-68
2023/08/26 00:50:54;;;;;;;6.97;4.47;;;;;;;25.11;51.83;99228.63;10332283;28;20206;-67
2023/08/26 00:55:55;;;;;;;7.85;4.72;;;;;;;23.95;54.41;99251.53;10334926;28;20257;-67
2023/08/26 01:00:57;;;;;;;6.72;4.78;;;;;;;24.47;53.17;99249.13;10333110;28;20244;-67
2023/08/26 01:06:00;;;;;;;6.40;4.53;;;;;;;24.55;53.04;99256.69;10333437;28;20237;-68
2023/08/26 01:11:04;;;;;;;6.70;4.72;;;;;;;24.79;52.75;99261.38;10329259;28;20368;-67
2023/08/26 01:16:09;;;;;;;8.65;5.07;;;;;;;25.48;51.27;99224.25;10336411;28;20434;-67
2023/08/26 01:21:13;;;;;;;8.40;4.93;;;;;;;25.21;51.77;99240.59;10331928;28;20232;-67
2023/08/26 01:26:15;;;;;;;6.57;4.50;;;;;;;23.72;54.26;99291.31;10338847;28;20239;-68
2023/08/26 01:31:20;;;;;;;8.13;4.90;;;;;;;24.70;52.49;99255.75;10331758;28;20251;-68
2023/08/26 01:36:25;;;;;;;7.03;5.10;;;;;;;24.60;52.56;99248.44;10330978;28;20244;-67
2023/08/26 01:41:28;;;;;;;9.70;4.45;;;;;;;24.89;51.56;99247.56;10330967;28;20279;-68
2023/08/26 01:46:35;;;;;;;7.45;4.60;;;;;;;23.61;54.07;99285.94;10336957;28;20370;-68
2023/08/26 01:51:38;;;;;;;7.15;4.63;;;;;;;24.84;51.34;99255.84;10333426;28;20245;-67
2023/08/26 01:56:39;;;;;;;6.78;4.32;;;;;;;23.73;52.74;99255.53;10339648;28;20242;-67
2023/08/26 02:01:41;;;;;;;5.95;4.40;;;;;;;23.19;52.60;99319.22;10331749;28;20233;-67
2023/08/26 02:06:43;;;;;;;6.35;4.03;;;;;;;23.93;50.75;99297.47;10330107;28;20654;-69
2023/08/26 02:11:44;;;;;;;7.15;4.45;;;;;;;24.54;49.82;99283.25;10333393;28;20249;-68
2023/08/26 02:16:46;;;;;;;5.40;4.35;;;;;;;24.58;49.25;99296.31;10330360;28;20236;-68
2023/08/26 02:21:48;;;;;;;6.68;4.10;;;;;;;25.79;47.66;99262.16;10327744;28;20303;-67
2023/08/26 02:26:50;;;;;;;7.60;4.35;;;;;;;24.58;49.11;99321.75;10338672;28;20228;-68
2023/08/26 02:31:51;;;;;;;6.15;3.88;;;;;;;24.77;49.17;99315.56;10332130;28;20633;-67
2023/08/26 02:36:53;;;;;;;6.90;4.47;;;;;;;24.91;48.66;99302.78;10327723;28;20230;-67
2023/08/26 02:41:55;;;;;;;5.80;4.05;;;;;;;24.12;49.74;99331.19;10329637;28;20222;-67
2023/08/26 02:46:56;;;;;;;6.63;3.90;;;;;;;24.33;49.31;99331.03;10333695;28;20237;-67
2023/08/26 02:51:58;;;;;;;5.45;3.70;;;;;;;24.65;48.74;99308.53;10327446;28;20364;-68
2023/08/26 02:57:00;;;;;;;5.70;3.55;;;;;;;24.18;49.72;99308.19;10336097;28;20239;-67
2023/08/26 03:02:03;;;;;;;8.05;3.72;;;;;;;24.42;49.43;99312.88;10329299;28;21206;-68
2023/08/26 03:07:05;;;;;;;5.03;3.78;;;;;;;24.24;48.97;99369.13;10333492;28;20252;-67
2023/08/26 03:12:07;;;;;;;6.07;3.95;;;;;;;24.17;49.50;99360.41;10332264;28;20311;-68
2023/08/26 03:17:09;;;;;;;7.00;4.25;;;;;;;25.24;47.16;99314.72;10331034;28;20225;-68
2023/08/26 03:22:10;;;;;;;7.63;4.07;;;;;;;23.73;49.17;99402.22;10329113;28;20560;-68
2023/08/26 03:27:12;;;;;;;5.93;4.05;;;;;;;24.70;48.39;99346.81;10327618;28;20497;-68
2023/08/26 03:32:13;;;;;;;5.85;4.18;;;;;;;24.65;48.58;99355.03;10324080;28;20236;-67
2023/08/26 03:37:18;;;;;;;6.43;4.07;;;;;;;24.94;47.63;99356.94;10330965;28;20233;-67
2023/08/26 03:42:19;;;;;;;6.85;3.97;;;;;;;25.25;46.73;99356.59;10331146;28;20236;-67
2023/08/26 03:47:22;;;;;;;6.20;4.00;;;;;;;24.82;48.19;99334.66;10340092;28;20240;-67
2023/08/26 03:52:24;;;;;;;7.28;4.18;;;;;;;24.76;47.93;99368.63;10331878;28;20229;-68
2023/08/26 03:57:26;;;;;;;5.63;3.90;;;;;;;24.42;48.23;99399.56;10344832;28;20714;-68
2023/08/26 04:02:27;;;;;;;4.90;3.53;;;;;;;25.21;47.06;99333.66;10335308;28;20793;-69
2023/08/26 04:07:29;;;;;;;5.32;3.70;;;;;;;23.74;49.46;99398.41;10342319;28;20247;-67
2023/08/26 04:12:31;;;;;;;4.82;3.60;;;;;;;23.85;49.83;99369.09;10335309;28;20619;-67
2023/08/26 04:17:32;;;;;;;5.38;3.60;;;;;;;24.87;47.63;99326.38;10341683;28;20237;-68
2023/08/26 04:22:34;;;;;;;6.65;3.83;;;;;;;25.33;46.67;99303.91;10340504;28;20240;-68
2023/08/26 04:27:36;;;;;;;5.50;3.65;;;;;;;25.75;45.98;99318.66;10334672;28;20236;-68
2023/08/26 04:32:38;;;;;;;7.68;3.95;;;;;;;26.19;45.17;99347.53;10336119;28;20277;-68
2023/08/26 04:37:39;;;;;;;7.38;4.57;;;;;;;26.14;45.55;99338.59;10339019;28;20243;-67
2023/08/26 04:42:41;;;;;;;9.07;4.10;;;;;;;25.37;46.53;99364.38;10334394;28;20464;-67
2023/08/26 04:47:46;;;;;;;7.40;3.80;;;;;;;24.23;48.50;99392.06;10337145;28;20244;-68
2023/08/26 04:52:48;;;;;;;6.70;4.25;;;;;;;24.42;48.27;99361.28;10328063;28;20621;-69
2023/08/26 04:57:49;;;;;;;8.55;4.40;;;;;;;24.54;47.94;99384.44;10334743;28;20239;-67
2023/08/26 05:02:52;;;;;;;6.95;3.75;;;;;;;24.43;48.44;99371.94;10331454;28;20238;-67
2023/08/26 05:07:55;;;;;;;6.22;4.13;;;;;;;23.67;48.92;99422.44;10335118;28;20344;-69
2023/08/26 05:12:57;;;;;;;6.38;3.85;;;;;;;25.95;45.78;99344.13;10336576;28;20229;-69
2023/08/26 05:17:59;;;;;;;5.05;3.70;;;;;;;24.63;46.92;99416.59;10334890;28;20233;-65
2023/08/26 05:23:01;;;;;;;5.60;4.35;;;;;;;25.91;45.44;99345.81;10333260;28;20234;-65
2023/08/26 05:28:04;;;;;;;6.22;4.13;;;;;;;24.37;48.34;99406.69;10329682;28;20238;-66
2023/08/26 05:33:06;;;;;;;7.85;4.20;;;;;;;24.12;48.21;99401.41;10330674;28;20225;-67
2023/08/26 05:38:07;;;;;;;6.35;4.00;;;;;;;24.77;47.00;99382.03;10335431;28;20469;-66
2023/08/26 05:43:09;;;;;;;5.88;3.88;;;;;;;24.47;46.89;99444.09;10335571;28;20233;-65
2023/08/26 05:48:11;;;;;;;4.93;4.10;;;;;;;25.51;45.84;99378.97;10334084;28;20244;-65
2023/08/26 05:53:13;;;;;;;5.85;4.32;;;;;;;24.59;47.41;99418.28;10332890;28;20233;-66
2023/08/26 05:58:14;;;;;;;5.47;3.50;;;;;;;24.58;46.92;99413.91;10332043;28;20244;-65
2023/08/26 06:03:16;;;;;;;7.00;4.15;;;;;;;24.32;47.75;99438.75;10327116;28;20783;-65
2023/08/26 06:08:18;;;;;;;6.20;3.95;;;;;;;24.91;46.87;99384.88;10331458;28;20336;-65
2023/08/26 06:13:19;;;;;;;5.22;3.53;;;;;;;23.79;47.35;99442.06;10324743;28;20240;-66
2023/08/26 06:18:22;;;;;;;7.07;3.97;;;;;;;25.00;46.08;99406.94;10334639;28;20731;-65
2023/08/26 06:23:24;;;;;;;4.50;3.50;;;;;;;22.41;49.22;99479.41;10330760;28;20343;-65
2023/08/26 06:28:28;;;;;;;3.97;3.53;;;;;;;24.85;45.83;99411.50;10329480;28;20243;-65
2023/08/26 06:33:30;;;;;;;8.13;3.47;;;;;;;22.53;48.27;99463.63;10331565;28;20342;-65
2023/08/26 06:38:31;;;;;;;7.43;3.28;;;;;;;24.02;46.13;99385.91;10334057;28;20233;-65
2023/08/26 06:43:33;;;;;;;4.15;2.95;;;;;;;23.56;45.07;99476.28;10328950;28;20229;-64
2023/08/26 06:48:35;;;;;;;3.50;2.53;;;;;;;22.99;45.34;99498.22;10337783;28;20245;-66
2023/08/26 06:53:36;;;;;;;3.28;2.50;;;;;;;25.84;42.01;99398.25;10318072;28;20661;-65
2023/08/26 06:58:38;;;;;;;4.65;2.55;;;;;;;24.13;42.70;99493.25;10333036;28;20241;-64
2023/08/26 07:03:40;;;;;;;4.45;3.08;;;;;;;24.61;42.87;99474.31;10331566;28;20232;-65
2023/08/26 07:08:42;;;;;;;5.50;2.42;;;;;;;24.11;44.08;99485.31;10334356;28;20684;-66
2023/08/26 07:13:43;;;;;;;5.55;2.85;;;;;;;24.23;44.36;99490.47;10328610;28;20634;-66
2023/08/26 07:18:45;;;;;;;7.50;3.03;;;;;;;24.21;43.87;99446.22;10334036;28;20261;-65
2023/08/26 07:23:49;;;;;;;3.35;2.58;;;;;;;25.37;42.13;99422.72;10335655;28;20384;-66
2023/08/26 07:28:52;;;;;;;2.50;2.30;;;;;;;24.85;42.70;99473.59;10334654;28;20240;-66
2023/08/26 07:33:55;;;;;;;5.03;2.58;;;;;;;23.70;44.51;99468.31;10338761;28;20236;-65
2023/08/26 07:38:56;;;;;;;2.55;2.20;;;;;;;24.58;43.72;99422.13;10317312;28;20337;-65
2023/08/26 07:43:58;;;;;;;3.15;2.47;;;;;;;24.30;45.36;99424.56;10337961;28;20243;-66
2023/08/26 07:49:00;;;;;;;5.03;3.00;;;;;;;24.54;45.00;99402.72;10340151;28;20256;-65
2023/08/26 07:54:01;;;;;;;3.95;2.78;;;;;;;24.37;44.73;99398.50;10332426;28;20229;-66
2023/08/26 07:59:03;;;;;;;3.80;2.80;;;;;;;24.91;43.80;99380.22;10336001;28;20252;-66
2023/08/26 08:04:05;;;;;;;4.63;2.75;;;;;;;24.12;44.63;99436.94;10339819;28;20618;-65
2023/08/26 08:09:07;;;;;;;5.70;2.47;;;;;;;23.55;45.62;99437.25;10332441;28;20463;-65
2023/08/26 08:14:09;;;;;;;2.35;2.10;;;;;;;24.14;44.94;99421.91;10329170;28;20229;-64
2023/08/26 08:19:10;;;;;;;3.83;2.40;;;;;;;24.07;44.77;99420.56;10339414;28;20232;-66
2023/08/26 08:24:14;;;;;;;5.97;2.30;;;;;;;23.02;46.86;99466.84;10331622;28;20311;-65
2023/08/26 08:29:16;;;;;;;3.63;2.55;;;;;;;24.25;45.21;99419.13;10334190;28;20549;-65
2023/08/26 08:34:18;;;;;;;5.47;3.17;;;;;;;23.63;45.85;99446.78;10330871;28;20226;-65
2023/08/26 08:39:19;;;;;;;3.67;2.72;;;;;;;24.16;45.07;99436.13;10334317;28;20225;-66
2023/08/26 08:44:24;;;;;;;8.40;3.50;;;;;;;25.36;43.03;99407.38;10333953;28;20790;-65
2023/08/26 08:49:27;;;;;;;5.95;3.05;;;;;;;24.53;44.33;99464.81;10332278;28;20639;-65
2023/08/26 08:54:34;;;;;;;4.32;2.65;;;;;;;24.54;44.77;99460.16;10331188;28;20233;-65
2023/08/26 08:59:37;;;;;;;3.58;2.40;;;;;;;24.66;43.77;99479.78;10336007;28;20255;-65
2023/08/26 09:04:39;;;;;;;6.38;2.40;;;;;;;24.45;42.69;99489.25;10331179;28;20244;-65
2023/08/26 09:09:40;;;;;;;4.30;2.03;;;;;;;25.06;42.25;99436.72;10335520;28;21290;-67
2023/08/26 09:15:01;;;;;;;4.15;2.05;;;;;;;24.96;40.16;99447.78;10332675;28;20233;-65
2023/08/26 09:20:05;;;;;;;2.33;2.13;;;;;;;24.80;42.23;99470.91;10330690;28;20233;-65
2023/08/26 09:25:07;;;;;;;1.88;1.75;;;;;;;24.45;41.46;99498.25;10333157;28;20233;-66
2023/08/26 09:30:09;;;;;;;3.08;2.20;;;;;;;24.69;41.49;99424.50;10334320;28;20268;-65
2023/08/26 09:35:18;;;;;;;2.97;1.75;;;;;;;24.68;40.18;99442.03;10332053;28;20628;-65
2023/08/26 09:40:40;;;;;;;3.95;1.77;;;;;;;24.26;41.53;99472.69;10320700;28;20253;-66
2023/08/26 09:45:41;;;;;;;3.10;1.77;;;;;;;24.17;39.07;99413.16;10331060;28;20484;-66
2023/08/26 09:50:43;;;;;;;2.53;2.10;;;;;;;24.54;40.60;99435.56;10334705;28;20657;-64
2023/08/26 09:55:51;;;;;;;2.72;2.38;;;;;;;24.60;40.41;99434.41;10332228;28;20702;-66
2023/08/26 10:00:54;;;;;;;2.55;1.40;;;;;;;26.01;36.83;99425.97;10337974;28;20213;-64
2023/08/26 10:05:59;;;;;;;1.88;1.77;;;;;;;25.07;39.37;99479.41;10337517;28;20240;-65
2023/08/26 10:11:07;;;;;;;4.43;2.05;;;;;;;24.82;39.37;99457.78;10329617;28;20597;-67
2023/08/26 10:16:09;;;;;;;2.45;1.90;;;;;;;23.91;40.40;99483.53;10334088;28;20584;-66
2023/08/26 10:21:17;;;;;;;3.22;1.90;;;;;;;24.14;39.45;99492.13;10331262;28;21458;-66
2023/08/26 10:26:19;;;;;;;2.20;1.50;;;;;;;24.26;38.55;99478.97;10337137;28;20241;-66
2023/08/26 10:31:21;;;;;;;1.60;1.50;;;;;;;23.48;37.80;99485.03;10330181;28;20296;-66
2023/08/26 10:36:22;;;;;;;2.92;1.83;;;;;;;25.20;38.26;99425.94;10336257;28;20321;-66
2023/08/26 10:41:25;;;;;;;3.05;1.85;;;;;;;24.83;37.19;99473.91;10327418;28;20720;-66
2023/08/26 10:46:34;;;;;;;6.22;4.47;;;;;;;25.38;37.94;99462.66;10318580;28;20842;-65
2023/08/26 10:51:36;;;;;;;2.88;2.30;;;;;;;25.39;38.11;99471.69;10329658;28;20336;-66
2023/08/26 10:56:39;;;;;;;3.53;2.42;;;;;;;24.31;39.85;99476.22;10331044;28;20240;-65
2023/08/26 11:06:23;;;;;;;2.05;1.88;;;;;;;22.08;44.43;99336.31;10402357;28;20813;-67
2023/08/26 11:11:25;;;;;;;2.25;1.70;;;;;;;21.30;46.12;99395.16;10319594;28;20236;-67
2023/08/26 11:16:29;;;;;;;4.35;2.10;;;;;;;21.26;45.75;99326.06;10322562;28;20233;-68
2023/08/26 11:21:36;;;;;;;4.68;3.33;;;;;;;21.49;44.26;99330.25;10316928;28;20657;-67
2023/08/26 11:26:37;;;;;;;4.22;2.10;;;;;;;21.20;43.63;99390.50;10323609;28;20251;-67
2023/08/26 11:31:39;;;;;;;2.30;2.10;;;;;;;19.47;45.58;99437.59;10321248;28;20255;-66
2023/08/26 11:36:41;;;;;;;4.22;1.67;;;;;;;20.24;44.30;99408.59;10325924;28;21725;-66
2023/08/26 11:41:42;;;;;;;2.20;1.58;;;;;;;21.51;43.65;99341.66;10322130;28;20235;-67
2023/08/26 11:46:44;;;;;;;3.10;1.50;;;;;;;20.90;43.00;99391.16;10329750;28;20236;-67
2023/08/26 11:51:46;;;;;;;2.22;1.70;;;;;;;21.41;42.43;99358.78;10329124;28;20365;-67
2023/08/26 11:56:48;;;;;;;1.73;1.58;;;;;;;21.08;42.99;99402.69;10329836;28;20233;-68
2023/08/26 12:01:50;;;;;;;2.65;1.55;;;;;;;22.02;42.57;99354.56;10326095;28;20388;-67
2023/08/26 12:06:52;;;;;;;1.80;1.60;;;;;;;20.86;43.69;99419.97;10329466;28;20496;-66
2023/08/26 12:11:53;;;;;;;2.17;1.60;;;;;;;21.87;42.65;99379.03;10327687;28;20312;-70
2023/08/26 12:17:03;;;;;;;2.88;1.95;;;;;;;21.68;43.09;99412.22;10305146;28;20235;-68
2023/08/26 12:22:05;;;;;;;2.33;2.13;;;;;;;22.18;43.71;99379.09;10296984;28;20284;-70
2023/08/26 12:27:11;;;;;;;2.08;1.83;;;;;;;21.94;42.37;99440.34;10300673;28;20747;-69
2023/08/26 12:32:12;;;;;;;3.22;1.70;;;;;;;22.62;42.31;99362.19;10303108;28;20712;-68
2023/08/26 12:37:14;;;;;;;3.10;1.88;;;;;;;22.62;42.35;99392.19;10304308;28;20841;-68
2023/08/26 12:42:16;;;;;;;3.67;1.90;;;;;;;22.81;42.37;99390.53;10297370;28;20300;-68
2023/08/26 12:47:18;;;;;;;2.35;1.60;;;;;;;22.09;43.40;99452.38;10304710;28;20238;-68
2023/08/26 12:52:20;;;;;;;3.28;1.90;;;;;;;22.92;42.29;99432.22;10302512;28;20217;-68
2023/08/26 12:57:22;;;;;;;3.60;2.03;;;;;;;22.94;42.49;99424.56;10300278;28;20720;-69
2023/08/26 13:02:24;;;;;;;1.85;1.75;;;;;;;23.06;43.19;99391.56;10298887;28;20230;-68
2023/08/26 13:07:26;;;;;;;2.60;1.60;;;;;;;22.75;42.55;99448.88;10304889;28;20328;-70
2023/08/26 13:12:27;;;;;;;2.25;1.83;;;;;;;22.15;43.56;99468.47;10302300;28;20229;-69
2023/08/26 13:17:29;;;;;;;2.25;1.70;;;;;;;21.55;45.79;99439.94;10304182;28;20230;-68
2023/08/26 13:22:31;;;;;;;2.35;1.67;;;;;;;21.71;46.19;99447.09;10299763;28;20234;-68
2023/08/26 13:27:32;;;;;;;2.70;2.10;;;;;;;22.30;45.02;99393.25;10296010;28;20372;-68
2023/08/26 13:32:34;;;;;;;3.10;1.70;;;;;;;22.05;45.00;99384.00;10303369;28;20321;-68
2023/08/26 13:37:35;;;;;;;2.10;1.55;;;;;;;21.27;45.56;99454.75;10303077;28;20329;-72
2023/08/26 13:42:37;;;;;;;4.75;2.00;;;;;;;22.62;43.26;99384.84;10306113;28;20388;-77
2023/08/26 13:47:39;;;;;;;5.85;2.55;;;;;;;23.21;42.69;99350.59;10302032;28;20238;-72
2023/08/26 13:52:41;;;;;;;2.88;1.67;;;;;;;23.22;42.31;99375.97;10300412;28;20717;-72
2023/08/26 13:57:43;;;;;;;3.17;1.83;;;;;;;22.85;43.07;99390.78;10305441;28;20240;-71
2023/08/26 14:02:44;;;;;;;3.28;1.90;;;;;;;21.80;44.56;99401.09;10315116;28;21537;-74
2023/08/26 14:07:46;;;;;;;2.38;1.70;;;;;;;22.00;43.01;99407.66;10303421;28;20595;-71
2023/08/26 14:12:48;;;;;;;4.13;1.60;;;;;;;22.10;42.91;99397.63;10301919;28;20225;-74
2023/08/26 14:17:50;;;;;;;2.10;1.80;;;;;;;21.92;42.13;99403.56;10298599;28;20261;-71
2023/08/26 14:22:51;;;;;;;3.58;1.95;;;;;;;21.58;42.83;99396.66;10302541;28;20308;-70
2023/08/26 14:27:53;;;;;;;3.13;1.92;;;;;;;22.19;42.34;99362.47;10296331;28;20266;-73
2023/08/26 14:32:56;;;;;;;1.73;1.60;;;;;;;23.24;42.41;99298.16;10298804;28;20234;-74
2023/08/26 14:37:57;;;;;;;2.88;1.70;;;;;;;22.39;43.93;99353.47;10297538;28;20233;-74
2023/08/26 14:43:00;;;;;;;2.20;1.85;;;;;;;21.54;44.56;99338.41;10301986;28;20556;-72
2023/08/26 14:48:01;;;;;;;3.15;1.73;;;;;;;21.61;44.49;99349.03;10319377;28;20233;-74
2023/08/26 14:53:06;;;;;;;2.78;1.73;;;;;;;21.25;45.42;99278.16;9469254;28;10000794;-75
2023/08/26 14:58:09;;;;;;;4.18;1.85;;;;;;;22.48;43.55;99264.59;10295903;28;20234;-74
2023/08/26 15:03:11;;;;;;;2.58;2.25;;;;;;;22.90;43.46;99249.72;10298211;28;20450;-74
2023/08/26 15:08:12;;;;;;;2.47;1.95;;;;;;;23.80;42.00;99260.69;10314406;28;20268;-75
2023/08/26 15:13:17;;;;;;;2.13;1.80;;;;;;;22.31;43.57;99326.78;10325861;28;20315;-74
2023/08/26 15:30:22;;;;;;;2.22;2.03;;;;;;;23.55;43.47;99265.22;9769527;26;20253;-37
2023/08/26 15:35:25;;;;;;;4.20;2.38;;;;;;;21.56;45.18;99374.34;9958872;28;20244;-37
2023/08/26 15:40:33;;;;;;;4.10;2.20;;;;;;;21.82;45.12;99357.25;9940721;28;21435;-37
2023/08/26 15:46:14;;;;;;;3.00;2.10;;;;;;;23.22;43.62;99289.44;9883235;28;20732;-37
2023/08/26 15:52:06;;;;;;;3.30;1.95;;;;;;;22.04;45.31;99351.56;9992925;28;20331;-37
2023/08/26 15:57:22;;;;;;;4.65;2.10;;;;;;;22.14;44.86;99321.59;9985339;28;20801;-37
2023/08/26 16:02:38;;;;;;;2.58;2.17;;;;;;;22.25;44.93;99346.94;10073634;28;20247;-37
2023/08/26 16:08:16;;;;;;;3.78;1.80;;;;;;;22.02;45.79;99348.31;10303693;28;20243;-36
2023/08/26 16:13:19;;;;;;;2.65;2.00;;;;;;;22.26;44.89;99360.28;10349736;28;20261;-36
2023/08/26 16:18:21;;;;;;;3.88;2.00;;;;;;;22.47;45.45;99309.31;10356107;28;20237;-36
2023/08/26 16:23:23;;;;;;;2.78;1.98;;;;;;;22.33;45.21;99322.66;10344020;28;20656;-36
2023/08/26 16:28:24;;;;;;;4.05;2.20;;;;;;;22.19;45.07;99369.84;10349652;28;20300;-36
2023/08/26 16:33:26;;;;;;;2.47;1.90;;;;;;;23.51;43.49;99290.63;10349118;28;20236;-36
2023/08/26 16:38:29;;;;;;;2.63;2.13;;;;;;;22.99;44.40;99320.09;10352999;28;20276;-36
2023/08/26 16:43:31;;;;;;;3.83;2.15;;;;;;;22.73;44.40;99350.16;10350432;28;20231;-36
2023/08/26 16:48:33;;;;;;;3.83;2.00;;;;;;;23.50;43.66;99300.75;10350541;28;20233;-38
2023/08/26 16:53:35;;;;;;;2.80;1.98;;;;;;;23.40;43.81;99328.94;10346952;28;20600;-36
2023/08/26 16:58:37;;;;;;;3.60;2.10;;;;;;;23.55;43.87;99283.50;10353998;28;20224;-36
2023/08/26 17:03:39;;;;;;;3.35;1.90;;;;;;;23.28;44.63;99289.41;10345861;28;20235;-36
2023/08/26 17:08:40;;;;;;;3.45;1.98;;;;;;;22.95;45.31;99298.00;10356288;28;20333;-36
2023/08/26 17:13:43;;;;;;;3.55;2.03;;;;;;;23.84;43.90;99264.47;10348606;28;20243;-36
2023/08/26 17:18:44;;;;;;;4.90;2.30;;;;;;;23.54;44.64;99309.19;10350781;28;20233;-36
2023/08/26 17:23:46;;;;;;;5.25;1.95;;;;;;;22.85;45.88;99347.94;10350533;28;20790;-36
2023/08/26 17:28:48;;;;;;;2.38;2.00;;;;;;;23.45;44.73;99328.09;10348886;28;20279;-36
2023/08/26 17:33:50;;;;;;;5.60;2.45;;;;;;;22.79;46.11;99326.41;10350688;28;20233;-36
2023/08/26 17:38:51;;;;;;;2.70;2.20;;;;;;;23.03;46.04;99300.16;10354131;28;20662;-36
2023/08/26 17:43:53;;;;;;;4.78;2.10;;;;;;;23.87;44.50;99307.63;10348128;28;20320;-36
2023/08/26 17:48:55;;;;;;;3.20;2.47;;;;;;;24.16;43.82;99306.88;10345430;28;20347;-36
2023/08/26 17:53:56;;;;;;;3.03;1.98;;;;;;;23.49;44.95;99369.28;10342054;28;20242;-36
2023/08/26 17:58:58;;;;;;;4.38;2.15;;;;;;;23.63;45.11;99357.50;10347874;28;20326;-36
2023/08/26 18:04:01;;;;;;;2.45;2.20;;;;;;;25.39;42.96;99269.88;10340538;28;20361;-36
2023/08/26 18:09:04;;;;;;;6.47;2.20;;;;;;;23.60;45.71;99396.25;10342436;28;20235;-35
2023/08/26 18:14:06;;;;;;;4.65;2.38;;;;;;;24.90;43.87;99323.06;10336305;28;20241;-35
2023/08/26 18:19:08;;;;;;;5.78;2.10;;;;;;;24.73;43.94;99332.56;10330081;28;20240;-36
2023/08/26 18:24:10;;;;;;;2.38;2.10;;;;;;;24.20;44.88;99342.63;10333564;28;20244;-36
2023/08/26 18:29:11;;;;;;;3.63;2.33;;;;;;;24.46;44.77;99297.53;10337966;28;20237;-39
2023/08/26 18:34:13;;;;;;;4.80;1.92;;;;;;;23.73;45.90;99333.94;10332943;28;20236;-38
2023/08/26 18:39:15;;;;;;;2.33;2.10;;;;;;;23.68;45.44;99351.16;10333221;28;20239;-37
2023/08/26 18:44:17;;;;;;;2.75;2.30;;;;;;;23.62;46.33;99314.91;10329306;28;20233;-37
2023/08/26 18:49:19;;;;;;;3.75;2.33;;;;;;;23.12;46.92;99346.78;10335663;28;20287;-37
2023/08/26 18:54:20;;;;;;;5.13;2.42;;;;;;;23.40;45.56;99375.34;10338532;28;20712;-37
2023/08/26 18:59:22;;;;;;;3.63;2.33;;;;;;;23.63;45.53;99345.75;10318563;28;20241;-36
2023/08/26 19:04:24;;;;;;;3.20;2.70;;;;;;;23.48;45.96;99345.81;10337287;28;20320;-37
2023/08/26 19:09:26;;;;;;;5.95;3.28;;;;;;;22.42;47.24;99410.19;10335416;28;20225;-37
2023/08/26 19:14:28;;;;;;;3.95;2.80;;;;;;;22.53;47.26;99381.81;10335171;28;20236;-37
2023/08/26 19:19:30;;;;;;;3.70;2.60;;;;;;;22.45;48.16;99343.38;10317181;28;20221;-37
2023/08/26 19:24:31;;;;;;;6.03;2.60;;;;;;;22.55;48.24;99365.19;10314743;28;20234;-37
2023/08/26 19:29:34;;;;;;;4.82;3.03;;;;;;;21.77;49.53;99407.06;10339777;28;20326;-37
2023/08/26 19:34:37;;;;;;;3.03;2.60;;;;;;;21.63;49.53;99390.44;10339031;28;20252;-36
2023/08/26 19:39:39;;;;;;;4.25;3.10;;;;;;;22.64;48.44;99289.94;10344442;28;20231;-36
2023/08/26 19:44:41;;;;;;;4.25;2.50;;;;;;;23.02;48.06;99292.25;10345962;28;20741;-36
2023/08/26 19:49:42;;;;;;;4.88;3.13;;;;;;;22.25;48.78;99383.19;10348782;28;20782;-36
2023/08/26 19:54:44;;;;;;;5.10;3.03;;;;;;;22.27;48.63;99320.25;10343374;28;20331;-37
2023/08/26 19:59:49;;;;;;;5.38;2.60;;;;;;;21.95;49.29;99364.91;10341014;28;20327;-37
2023/08/26 20:04:51;;;;;;;4.72;2.35;;;;;;;22.03;48.52;99367.13;10345823;28;25449;-37
2023/08/26 20:09:53;;;;;;;5.40;2.72;;;;;;;21.98;49.13;99350.75;10343630;28;20844;-36
2023/08/26 20:15:01;;;;;;;9.13;3.80;;;;;;;22.12;49.10;99310.16;10341369;28;20260;-37
2023/08/26 20:20:07;;;;;;;4.80;2.85;;;;;;;21.24;49.78;99396.25;10342182;28;20280;-36
2023/08/26 20:25:09;;;;;;;4.57;2.40;;;;;;;22.60;48.22;99263.50;10335278;28;20249;-36
2023/08/26 20:30:11;;;;;;;3.25;2.42;;;;;;;23.06;46.93;99285.16;10322365;28;20734;-36
2023/08/26 20:35:14;;;;;;;4.88;2.70;;;;;;;22.73;47.49;99358.34;10343236;28;21187;-38
2023/08/26 20:40:16;;;;;;;5.57;2.72;;;;;;;22.74;47.69;99329.16;10346249;28;20229;-36
2023/08/26 20:45:18;;;;;;;6.57;2.85;;;;;;;22.53;47.58;99348.31;10341008;28;20232;-37
2023/08/26 20:50:20;;;;;;;7.47;2.95;;;;;;;22.34;48.09;99378.81;10340117;28;20229;-37
2023/08/26 20:55:21;;;;;;;5.07;2.85;;;;;;;22.74;47.48;99327.28;10342252;28;20235;-38
2023/08/26 21:00:23;;;;;;;5.80;2.72;;;;;;;22.45;47.96;99397.88;10340695;28;20229;-36
2023/08/26 21:05:27;;;;;;;4.15;2.90;;;;;;;21.98;48.19;99410.66;10339950;28;20225;-37
2023/08/26 21:10:29;;;;;;;4.43;3.22;;;;;;;20.92;51.08;99367.25;10342165;28;20249;-36
2023/08/26 21:15:31;;;;;;;4.53;2.97;;;;;;;23.16;46.41;99315.13;10341798;28;20244;-36
2023/08/26 21:20:33;;;;;;;3.15;2.42;;;;;;;23.73;45.42;99293.78;10340392;28;20233;-38
2023/08/26 21:25:35;;;;;;;5.47;3.33;;;;;;;22.86;47.07;99359.69;10333532;28;20241;-36
2023/08/26 21:30:37;;;;;;;7.32;3.00;;;;;;;22.68;47.76;99331.09;10338355;28;20237;-36
2023/08/26 21:35:38;;;;;;;3.65;3.28;;;;;;;22.77;46.82;99326.69;10334261;28;20242;-36
2023/08/26 21:40:40;;;;;;;3.28;2.58;;;;;;;20.61;50.45;99406.97;10339084;28;20209;-37
2023/08/26 21:45:42;;;;;;;4.18;3.17;;;;;;;22.13;48.57;99323.53;10340903;28;20233;-36
2023/08/26 21:50:44;;;;;;;4.65;2.92;;;;;;;20.73;49.96;99395.91;10344528;28;20208;-37
2023/08/26 21:55:52;;;;;;;6.40;3.75;;;;;;;21.60;48.93;99334.59;10338260;28;20237;-36
2023/08/26 22:00:54;;;;;;;4.50;3.47;;;;;;;20.62;50.47;99352.34;10334197;28;20604;-36
2023/08/26 22:05:56;;;;;;;6.22;3.55;;;;;;;22.44;46.93;99301.69;10338556;28;20238;-36
2023/08/26 22:10:58;;;;;;;6.05;3.58;;;;;;;20.09;51.62;99365.81;10335086;28;20213;-37
2023/08/26 22:15:59;;;;;;;4.88;3.10;;;;;;;21.23;49.31;99310.25;10337982;28;20750;-36
2023/08/26 22:21:01;;;;;;;6.13;3.50;;;;;;;21.32;49.48;99275.97;10340081;28;20211;-36
2023/08/26 22:26:03;;;;;;;4.57;3.17;;;;;;;20.38;51.69;99297.59;10331182;28;20630;-38
2023/08/26 22:31:05;;;;;;;3.60;3.00;;;;;;;22.54;47.57;99213.63;10341002;28;20241;-36
2023/08/26 22:36:08;;;;;;;5.93;3.47;;;;;;;22.72;46.73;99266.72;10322717;28;20352;-37
2023/08/26 22:41:10;;;;;;;6.85;3.50;;;;;;;20.63;50.68;99358.59;10332478;28;20233;-36
2023/08/26 22:46:12;;;;;;;4.40;3.38;;;;;;;22.25;48.33;99227.03;10335831;28;20232;-36
2023/08/26 22:51:14;;;;;;;5.68;3.10;;;;;;;23.19;46.33;99265.44;10321018;28;20241;-37
2023/08/26 22:56:16;;;;;;;5.68;3.55;;;;;;;20.04;51.73;99341.31;10333646;28;20226;-37
2023/08/26 23:01:18;;;;;;;4.97;3.63;;;;;;;19.82;52.61;99303.34;10338470;28;20344;-37
2023/08/26 23:06:19;;;;;;;5.78;3.90;;;;;;;20.38;51.57;99213.38;10342313;28;20733;-37
2023/08/26 23:11:21;;;;;;;5.10;3.70;;;;;;;20.58;50.20;99334.94;10342213;28;20299;-36
2023/08/26 23:16:23;;;;;;;6.40;3.58;;;;;;;19.91;52.29;99303.72;10339512;28;20307;-37
2023/08/26 23:21:25;;;;;;;5.77;3.43;;;;;;;20.33;51.00;99300.28;10336391;28;20247;-37
2023/08/26 23:26:27;;;;;;;4.13;3.55;;;;;;;21.19;49.74;99244.69;10313137;28;20330;-37
2023/08/26 23:31:29;;;;;;;4.33;3.50;;;;;;;23.35;45.97;99206.13;10336489;28;20209;-36
2023/08/26 23:36:31;;;;;;;5.63;2.67;;;;;;;22.28;47.59;99267.34;10340408;28;20257;-36
2023/08/26 23:41:33;;;;;;;5.95;3.25;;;;;;;23.05;46.42;99223.47;10318117;28;20725;-37